Latest Weather Observations for Brisbane Airport

IDQ60801

Issued at 7:52 pm EST Friday 20 May 2022 (issued every 10 minutes, with the page automatically refreshed every 10 minutes)

About weather observations | Map of weather stations | Latest weather observations for QLD | Other Formats
Station Details ID: 040842 Name: BRISBANE AERO Lat: -27.39 Lon: 153.13 Height: 4.51 m
Data from the previous 72 hours. | See also: Recent months at Brisbane Airport
Date/Time
EST
Temp
°C
App
Temp
°C
Dew
Point
°C
Rel
Hum
%
Delta-T
°C
Wind Press
QNH
hPa
Press
MSL
hPa
Rain since
9am
mm
Dir  Spd
km/h
Gust
km/h
Spd
kts
Gust
kts
20/07:30pm 17.8 16.4 13.5 76 2.4 S 13 20 7 11 1025.7 1025.6 5.4
20/07:00pm 18.0 16.3 13.7 76 2.4 S 15 22 8 12 1025.3 1025.2 5.4
20/06:30pm 18.0 16.8 14.1 78 2.2 S 13 26 7 14 1025.5 1025.4 5.4
20/06:00pm 18.2 17.2 14.5 79 2.1 S 13 19 7 10 1025.1 1025.0 5.4
20/05:30pm 17.9 17.8 15.0 83 1.7 S 9 13 5 7 1024.9 1024.8 5.4
20/05:00pm 17.7 17.3 15.1 85 1.5 S 11 19 6 10 1025.0 1024.9 5.4
20/04:30pm 18.1 17.3 15.2 83 1.7 S 13 22 7 12 1024.8 1024.7 5.2
20/04:00pm 18.5 18.0 15.9 85 1.5 SSW 13 17 7 9 1025.0 1024.9 5.2
20/03:30pm 18.6 18.1 16.0 85 1.5 S 13 20 7 11 1024.4 1024.3 5.2
20/03:00pm 18.3 17.9 16.3 88 1.2 S 13 20 7 11 1024.3 1024.2 5.2
20/02:30pm 18.0 17.7 16.5 91 0.9 S 13 20 7 11 1024.0 1023.9 5.2
20/02:00pm 18.3 17.8 16.8 91 0.9 SSW 15 20 8 11 1024.0 1023.9 4.6
20/01:49pm 18.1 18.3 16.8 92 0.8 S 11 19 6 10 1024.1 1024.0 4.4
20/01:34pm 18.3 17.9 16.3 88 1.2 S 13 19 7 10 1024.4 1024.3 2.8
20/01:30pm 18.7 18.0 16.5 87 1.3 SSW 15 19 8 10 1024.2 1024.1 0.8
20/01:00pm 20.1 18.6 15.3 74 2.8 SE 17 32 9 17 1024.1 1024.0 0.2
20/12:30pm 19.7 19.3 16.3 81 2.0 SSE 13 24 7 13 1024.4 1024.3 0.2
20/12:00pm 20.9 20.2 15.4 71 3.3 SSE 13 24 7 13 1024.5 1024.4 0.0
20/11:30am 21.1 20.5 15.6 71 3.3 S 13 19 7 10 1024.5 1024.4 0.0
20/11:00am 20.3 20.1 15.7 75 2.7 S 11 17 6 9 1025.3 1025.2 0.0
20/10:30am 20.0 19.7 15.4 75 2.7 S 11 15 6 8 1025.4 1025.3 0.0
20/10:00am 19.5 18.7 15.2 76 2.5 SSW 13 19 7 10 1025.6 1025.5 0.0
20/09:50am 19.5 18.7 15.0 75 2.6 SSW 13 19 7 10 1025.6 1025.5 0.0
20/09:30am 19.2 18.3 14.9 76 2.5 SSW 13 17 7 9 1025.5 1025.4 0.0
20/09:00am 19.6 18.6 14.6 73 2.9 SSW 13 19 7 10 1025.4 1025.3 0.0
20/08:30am 19.0 17.6 14.5 75 2.6 SSW 15 22 8 12 1025.4 1025.3 0.0
20/08:00am 18.5 17.8 14.4 77 2.4 SSW 11 15 6 8 1025.3 1025.2 0.0
20/07:30am 18.2 17.6 14.5 79 2.1 SSW 11 15 6 8 1025.1 1025.0 0.0
20/07:00am 17.9 17.3 14.6 81 1.9 SSW 11 15 6 8 1024.6 1024.5 0.0
20/06:30am 17.7 16.6 14.4 81 1.9 SSW 13 17 7 9 1024.3 1024.2 0.0
20/06:00am 17.9 17.3 14.6 81 1.9 SSW 11 15 6 8 1024.1 1024.0 0.0
20/05:30am 17.7 17.1 14.6 82 1.8 SSW 11 15 6 8 1023.8 1023.7 0.0
20/05:00am 17.7 17.2 14.8 83 1.7 SSW 11 17 6 9 1023.7 1023.6 0.0
20/04:30am 18.0 17.1 14.9 82 1.8 SSW 13 19 7 10 1023.3 1023.2 0.0
20/04:00am 18.2 18.2 15.1 82 1.8 SSW 9 13 5 7 1023.2 1023.1 0.0
20/03:30am 18.1 17.6 15.0 82 1.8 SSW 11 15 6 8 1023.0 1022.9 0.0
20/03:00am 18.4 18.4 15.1 81 1.9 SSW 9 11 5 6 1022.8 1022.7 0.0
20/02:30am 18.6 18.6 15.1 80 2.0 SSW 9 11 5 6 1022.9 1022.8 0.0
20/02:00am 18.6 18.6 15.1 80 2.0 SSW 9 13 5 7 1023.2 1023.1 0.0
20/01:30am 18.7 18.2 15.0 79 2.2 SSW 11 15 6 8 1023.3 1023.2 0.0
20/01:00am 18.9 18.4 15.0 78 2.3 SSW 11 15 6 8 1023.5 1023.4 0.0
20/12:30am 18.8 17.9 14.9 78 2.3 SSW 13 22 7 12 1023.5 1023.4 0.0
20/12:00am 18.6 17.8 15.1 80 2.0 SSW 13 20 7 11 1024.0 1023.9 0.0
 
Date/Time
EST
Temp
°C
App
Temp
°C
Dew
Point
°C
Rel
Hum
%
Delta-T
°C
Wind Press
QNH
hPa
Press
MSL
hPa
Rain since
9am
mm
Dir  Spd
km/h
Gust
km/h
Spd
kts
Gust
kts
19/11:30pm 18.6 18.2 15.1 80 2.0 S 11 19 6 10 1024.0 1023.9 0.0
19/11:00pm 18.1 18.0 15.0 82 1.8 SSW 9 13 5 7 1024.3 1024.2 0.0
19/10:30pm 18.5 18.4 15.0 80 2.0 S 9 15 5 8 1024.4 1024.3 0.0
19/10:00pm 18.7 18.2 15.0 79 2.2 S 11 17 6 9 1023.9 1023.8 0.0
19/09:30pm 18.8 18.4 15.1 79 2.2 SSW 11 17 6 9 1024.1 1024.0 0.0
19/09:00pm 18.8 18.4 15.3 80 2.0 S 11 15 6 8 1023.9 1023.8 0.0
19/08:30pm 19.3 19.4 15.4 78 2.3 S 9 15 5 8 1023.9 1023.8 0.0
19/08:00pm 19.2 18.9 15.5 79 2.2 S 11 15 6 8 1023.7 1023.6 0.0
19/07:30pm 19.4 19.3 15.9 80 2.1 SSW 11 15 6 8 1023.5 1023.4 0.0
19/07:00pm 19.9 19.9 16.2 79 2.2 S 11 17 6 9 1023.0 1022.9 0.0
19/06:30pm 20.4 20.2 15.6 74 2.9 SSE 11 17 6 9 1022.7 1022.6 0.0
19/06:00pm 20.4 19.8 15.6 74 2.8 SSE 13 20 7 11 1022.4 1022.3 0.0
19/05:30pm 20.6 20.0 15.6 73 3.0 SE 13 20 7 11 1022.2 1022.1 0.0
19/05:00pm 20.8 19.8 15.6 72 3.1 SE 15 24 8 13 1021.9 1021.8 0.0
19/04:30pm 21.5 20.3 15.1 67 3.8 SSE 15 24 8 13 1021.4 1021.3 0.0
19/04:00pm 21.8 20.8 15.6 68 3.7 SE 15 20 8 11 1021.3 1021.2 0.0
19/03:30pm 21.7 20.7 15.5 68 3.7 SE 15 26 8 14 1021.0 1020.9 0.0
19/03:00pm 21.9 20.3 16.0 69 3.5 SE 19 32 10 17 1020.8 1020.7 0.0
19/02:30pm 22.0 20.7 15.8 68 3.7 SE 17 28 9 15 1020.9 1020.8 0.0
19/02:00pm 22.1 20.9 16.1 69 3.6 SE 17 28 9 15 1020.7 1020.6 0.0
19/01:30pm 22.2 21.2 16.5 70 3.5 SE 17 28 9 15 1020.9 1020.8 0.0
19/01:00pm 22.7 21.7 16.7 69 3.7 SE 17 30 9 16 1020.9 1020.8 0.0
19/12:30pm 21.8 21.1 16.5 72 3.2 SSE 15 26 8 14 1021.1 1021.0 0.0
19/12:00pm 22.0 21.3 17.4 75 2.8 SE 17 28 9 15 1021.5 1021.4 0.0
19/11:30am 22.2 21.8 18.0 77 2.6 SSE 17 28 9 15 1021.8 1021.7 0.0
19/11:00am 21.8 21.7 17.8 78 2.5 SSE 15 24 8 13 1022.2 1022.1 0.0
19/10:30am 21.3 21.8 18.3 83 1.9 SSE 13 26 7 14 1022.4 1022.3 0.0
19/10:12am 20.8 21.3 18.4 86 1.5 SSE 13 22 7 12 1022.4 1022.3 0.0
19/10:00am 20.6 20.6 18.2 86 1.5 SSE 15 24 8 13 1022.3 1022.2 0.0
19/09:30am 20.9 21.2 18.7 87 1.4 S 15 28 8 15 1022.3 1022.2 0.0
19/09:00am 21.4 21.4 19.0 86 1.5 S 17 30 9 16 1022.0 1021.9 0.4
19/08:30am 20.5 21.1 18.6 89 1.2 S 13 22 7 12 1021.9 1021.8 0.4
19/08:00am 19.2 19.4 17.7 91 0.9 SSW 13 20 7 11 1021.9 1021.8 0.4
19/07:30am 18.7 18.7 17.2 91 0.9 SSW 13 17 7 9 1021.4 1021.3 0.4
19/07:00am 18.1 17.9 16.8 92 0.8 SW 13 15 7 8 1021.0 1020.9 0.4
19/06:30am 18.2 18.3 16.5 90 1.0 SSW 11 15 6 8 1020.3 1020.2 0.4
19/06:00am 17.9 17.3 16.6 92 0.8 SW 15 19 8 10 1020.1 1020.0 0.4
19/05:30am 18.3 17.9 17.1 93 0.7 SW 15 20 8 11 1020.0 1019.9 0.4
19/05:00am 18.5 19.1 16.7 89 1.1 S 9 15 5 8 1019.7 1019.6 0.2
19/04:30am 19.0 19.2 17.7 92 0.8 SSW 13 19 7 10 1019.1 1019.0 0.0
19/04:00am 19.2 19.7 18.4 95 0.5 SSW 13 17 7 9 1019.2 1019.1 0.0
19/03:30am 19.2 20.2 18.7 97 0.3 SW 11 13 6 7 1019.3 1019.2 0.0
19/03:00am 18.9 19.3 18.2 96 0.4 SW 13 15 7 8 1019.0 1018.9 0.0
19/02:30am 19.0 19.9 18.3 96 0.4 SSW 11 13 6 7 1018.7 1018.6 0.0
19/02:00am 19.1 20.0 18.4 96 0.4 SW 11 13 6 7 1018.7 1018.6 0.0
19/01:30am 19.2 20.5 18.4 95 0.5 SW 9 9 5 5 1018.8 1018.7 0.0
19/01:00am 19.6 21.1 18.9 96 0.4 SW 9 9 5 5 1019.1 1019.0 0.0
19/12:30am 20.0 22.0 19.2 95 0.5 S 7 9 4 5 1019.0 1018.9 0.0
19/12:00am 19.9 22.4 19.1 95 0.5 SSW 4 9 2 5 1018.9 1018.8 0.0
 
Date/Time
EST
Temp
°C
App
Temp
°C
Dew
Point
°C
Rel
Hum
%
Delta-T
°C
Wind Press
QNH
hPa
Press
MSL
hPa
Rain since
9am
mm
Dir  Spd
km/h
Gust
km/h
Spd
kts
Gust
kts
18/11:30pm 20.1 23.5 19.3 95 0.5 CALM 0 7 0 4 1019.1 1019.0 0.0
18/11:00pm 20.1 23.5 19.4 96 0.4 CALM 0 0 0 0 1019.2 1019.1 0.0
18/10:30pm 20.0 23.0 19.2 95 0.5 SSW 2 7 1 4 1019.3 1019.2 0.0
18/10:00pm 19.9 22.1 19.2 96 0.4 S 6 7 3 4 1019.4 1019.3 0.0
18/09:30pm 19.7 23.0 19.0 96 0.4 CALM 0 0 0 0 1019.3 1019.2 0.0
18/09:25pm 19.7 23.0 19.0 96 0.4 CALM 0 0 0 0 1019.3 1019.2 0.0
18/09:00pm 19.5 22.7 18.8 96 0.4 CALM 0 0 0 0 1019.1 1019.0 0.0
18/08:30pm 19.7 22.9 18.9 95 0.5 CALM 0 0 0 0 1018.9 1018.8 0.0
18/08:21pm 19.6 22.7 18.6 94 0.6 CALM 0 0 0 0 1018.8 1018.7 0.0
18/08:00pm 19.8 23.1 19.0 95 0.5 CALM 0 0 0 0 1018.9 1018.8 0.0
18/07:30pm 20.0 23.2 18.8 93 0.8 CALM 0 0 0 0 1018.8 1018.7 0.0
18/07:00pm 20.3 23.7 19.3 94 0.6 CALM 0 0 0 0 1018.5 1018.4 0.0
18/06:30pm 20.7 24.2 19.5 93 0.8 CALM 0 0 0 0 1018.2 1018.1 0.0
18/06:00pm 21.0 24.5 19.5 91 1.0 CALM 0 0 0 0 1017.7 1017.7 0.0
18/05:30pm 21.5 23.9 20.1 92 0.9 E 7 9 4 5 1017.4 1017.4 0.0
18/05:00pm 22.3 24.4 19.3 83 1.9 E 7 9 4 5 1017.2 1017.2 0.0
18/04:30pm 23.0 24.9 19.8 82 2.1 E 9 11 5 6 1016.9 1016.9 0.0
18/04:00pm 23.4 25.5 20.2 82 2.1 E 9 15 5 8 1016.6 1016.6 0.0
18/03:30pm 23.4 25.8 20.0 81 2.2 ESE 7 13 4 7 1016.7 1016.7 0.0
18/03:00pm 23.9 25.4 19.8 78 2.6 ESE 11 17 6 9 1016.5 1016.5 0.0
18/02:30pm 24.1 26.1 20.0 78 2.6 E 9 15 5 8 1016.7 1016.7 0.0
18/02:00pm 24.4 25.6 19.0 72 3.4 SE 11 15 6 8 1016.6 1016.6 0.0
18/01:30pm 24.1 25.6 19.0 73 3.2 SE 9 13 5 7 1016.9 1016.9 0.0
18/01:00pm 24.6 26.7 20.1 76 2.9 SE 9 15 5 8 1017.1 1017.1 0.0
18/12:30pm 24.1 25.8 19.4 75 3.0 ESE 9 13 5 7 1017.4 1017.4 0.0
18/12:00pm 24.3 25.9 19.1 73 3.3 SE 9 15 5 8 1018.2 1018.1 0.0
18/11:30am 23.8 25.5 19.3 76 2.9 S 9 11 5 6 1018.5 1018.4 0.0
18/11:00am 23.5 25.5 19.2 77 2.7 S 7 11 4 6 1019.0 1018.9 0.0
18/10:30am 23.0 24.2 19.0 78 2.5 SSW 11 17 6 9 1019.2 1019.1 0.0
18/10:00am 22.1 22.4 18.7 81 2.1 SW 15 19 8 10 1019.5 1019.4 0.0
18/09:30am 21.5 21.1 18.9 85 1.6 SW 19 26 10 14 1019.6 1019.5 0.0
18/09:00am 21.4 21.2 18.6 84 1.8 SSW 17 24 9 13 1019.6 1019.5 0.0
18/08:30am 21.2 21.3 18.4 84 1.7 SSW 15 20 8 11 1019.4 1019.3 0.0
18/08:00am 20.8 21.2 18.2 85 1.6 SSW 13 19 7 10 1019.1 1019.0 0.0
18/07:30am 20.4 21.0 18.5 89 1.2 SSW 13 17 7 9 1018.8 1018.7 0.0
18/07:00am 20.3 21.5 18.2 88 1.3 SSW 9 13 5 7 1018.4 1018.3 0.0
18/06:30am 19.7 20.5 18.2 91 0.9 SW 11 15 6 8 1018.2 1018.1 0.0
18/06:00am 20.0 20.8 18.1 89 1.2 SSW 11 13 6 7 1017.7 1017.7 0.0
18/05:30am 20.1 21.7 18.2 89 1.2 SSW 7 9 4 5 1017.6 1017.6 0.0
18/05:00am 20.1 21.4 18.4 90 1.1 SSW 9 11 5 6 1017.5 1017.5 0.0
18/04:30am 19.5 20.3 18.2 92 0.8 SW 11 13 6 7 1017.3 1017.3 0.0
18/04:00am 20.1 21.4 18.4 90 1.1 SSW 9 13 5 7 1017.3 1017.3 0.0
18/03:30am 19.9 20.9 18.6 92 0.8 SSW 11 15 6 8 1017.1 1017.1 0.0
18/03:00am 19.8 20.8 18.6 93 0.7 SSW 11 13 6 7 1017.1 1017.1 0.0
18/02:30am 19.6 20.9 18.4 93 0.7 SW 9 11 5 6 1017.1 1017.1 0.0
18/02:00am 19.8 21.2 18.6 93 0.7 SSW 9 13 5 7 1017.5 1017.5 0.0
18/01:30am 20.2 21.6 18.7 91 0.9 SSW 9 15 5 8 1018.0 1017.9 0.0
18/01:00am 20.9 21.4 18.3 85 1.6 SSW 13 19 7 10 1018.2 1018.1 0.0
18/12:30am 21.0 21.4 18.2 84 1.7 SSW 13 19 7 10 1018.4 1018.3 0.0
18/12:00am 21.0 21.9 18.4 85 1.6 SSW 11 15 6 8 1018.3 1018.2 0.0
 
Date/Time
EST
Temp
°C
App
Temp
°C
Dew
Point
°C
Rel
Hum
%
Delta-T
°C
Wind Press
QNH
hPa
Press
MSL
hPa
Rain since
9am
mm
Dir  Spd
km/h
Gust
km/h
Spd
kts
Gust
kts
17/11:30pm 21.1 22.3 18.3 84 1.7 SSW 9 13 5 7 1018.5 1018.4 0.0
17/11:00pm 21.2 22.5 18.4 84 1.7 S 9 13 5 7 1018.4 1018.3 0.0
17/10:30pm 21.2 22.1 18.4 84 1.7 S 11 17 6 9 1018.4 1018.3 0.0
17/10:00pm 21.3 22.2 18.3 83 1.9 S 11 17 6 9 1018.5 1018.4 0.0
17/09:30pm 21.5 22.4 18.3 82 2.0 S 11 15 6 8 1018.5 1018.4 0.0
17/09:00pm 21.6 22.6 18.6 83 1.9 S 11 17 6 9 1018.5 1018.4 0.0
17/08:30pm 21.7 22.6 18.5 82 2.0 SSE 11 19 6 10 1018.3 1018.2 0.0
17/08:00pm 21.9 22.5 18.7 82 2.0 S 13 22 7 12 1018.5 1018.4 0.0

Other formats

Comma delimited format used in spreadsheet applications
http://www.bom.gov.au/fwo/IDQ60801/IDQ60801.94578.axf

JavaScript Object Notation format (JSON) in row-major order
http://www.bom.gov.au/fwo/IDQ60801/IDQ60801.94578.json

Data quality

Most of these data are generated automatically and are frequently updated. Quality checks on data are not normally performed. It is possible for incorrect values to appear. Refer to information at About Latest Weather Observations and please check the disclaimer before using these data.